sensor_id;sensor_type;location;lat;lon;timestamp;temperature;humidity
19168;DHT22;9716;53.114;18.040;2024-02-26T00:00:06;3.60;99.90
19168;DHT22;9716;53.114;18.040;2024-02-26T00:02:37;3.60;99.90
19168;DHT22;9716;53.114;18.040;2024-02-26T00:05:08;3.60;99.90
19168;DHT22;9716;53.114;18.040;2024-02-26T00:07:36;3.50;99.90
19168;DHT22;9716;53.114;18.040;2024-02-26T00:10:07;3.50;99.90
19168;DHT22;9716;53.114;18.040;2024-02-26T00:12:37;3.60;99.90
19168;DHT22;9716;53.114;18.040;2024-02-26T00:15:08;3.50;99.90
19168;DHT22;9716;53.114;18.040;2024-02-26T00:17:36;3.50;99.90
19168;DHT22;9716;53.114;18.040;2024-02-26T00:20:07;3.50;99.90
19168;DHT22;9716;53.114;18.040;2024-02-26T00:22:36;3.40;99.90
19168;DHT22;9716;53.114;18.040;2024-02-26T00:25:06;3.40;99.90
19168;DHT22;9716;53.114;18.040;2024-02-26T00:27:35;3.40;99.90
19168;DHT22;9716;53.114;18.040;2024-02-26T00:30:06;3.40;99.90
19168;DHT22;9716;53.114;18.040;2024-02-26T00:32:35;3.40;99.90
19168;DHT22;9716;53.114;18.040;2024-02-26T00:35:05;3.30;99.90
19168;DHT22;9716;53.114;18.040;2024-02-26T00:37:34;3.30;99.90
19168;DHT22;9716;53.114;18.040;2024-02-26T00:40:03;3.30;99.90
19168;DHT22;9716;53.114;18.040;2024-02-26T00:42:32;3.20;99.90
19168;DHT22;9716;53.114;18.040;2024-02-26T00:45:00;3.20;99.90
19168;DHT22;9716;53.114;18.040;2024-02-26T00:47:31;3.20;99.90
19168;DHT22;9716;53.114;18.040;2024-02-26T00:50:00;3.10;99.90
19168;DHT22;9716;53.114;18.040;2024-02-26T00:52:29;3.10;99.90
19168;DHT22;9716;53.114;18.040;2024-02-26T00:54:58;3.10;99.90
19168;DHT22;9716;53.114;18.040;2024-02-26T00:57:26;3.10;99.90
19168;DHT22;9716;53.114;18.040;2024-02-26T00:59:55;3.00;99.90
19168;DHT22;9716;53.114;18.040;2024-02-26T01:02:24;3.00;99.90
19168;DHT22;9716;53.114;18.040;2024-02-26T01:04:54;3.00;99.90
19168;DHT22;9716;53.114;18.040;2024-02-26T01:07:23;3.00;99.90
19168;DHT22;9716;53.114;18.040;2024-02-26T01:09:52;2.90;99.90
19168;DHT22;9716;53.114;18.040;2024-02-26T01:12:20;3.00;99.90
19168;DHT22;9716;53.114;18.040;2024-02-26T01:14:49;3.00;99.90
19168;DHT22;9716;53.114;18.040;2024-02-26T01:17:17;3.00;99.90
19168;DHT22;9716;53.114;18.040;2024-02-26T01:19:46;3.00;99.90
19168;DHT22;9716;53.114;18.040;2024-02-26T01:22:17;3.10;99.90
19168;DHT22;9716;53.114;18.040;2024-02-26T01:24:46;3.10;99.90
19168;DHT22;9716;53.114;18.040;2024-02-26T01:27:15;3.20;99.90
19168;DHT22;9716;53.114;18.040;2024-02-26T01:29:45;3.20;99.90
19168;DHT22;9716;53.114;18.040;2024-02-26T01:32:13;3.30;99.90
19168;DHT22;9716;53.114;18.040;2024-02-26T01:34:42;3.40;99.90
19168;DHT22;9716;53.114;18.040;2024-02-26T01:37:10;3.50;99.90
19168;DHT22;9716;53.114;18.040;2024-02-26T01:39:40;3.60;99.90
19168;DHT22;9716;53.114;18.040;2024-02-26T01:42:09;3.60;99.90
19168;DHT22;9716;53.114;18.040;2024-02-26T01:44:38;3.70;99.90
19168;DHT22;9716;53.114;18.040;2024-02-26T01:47:09;3.70;99.90
19168;DHT22;9716;53.114;18.040;2024-02-26T01:49:39;3.80;99.90
19168;DHT22;9716;53.114;18.040;2024-02-26T01:52:08;3.90;99.90
19168;DHT22;9716;53.114;18.040;2024-02-26T01:54:39;3.90;99.90
19168;DHT22;9716;53.114;18.040;2024-02-26T01:57:08;3.90;99.90
19168;DHT22;9716;53.114;18.040;2024-02-26T01:59:38;4.00;99.90
19168;DHT22;9716;53.114;18.040;2024-02-26T02:02:08;3.90;99.90
19168;DHT22;9716;53.114;18.040;2024-02-26T02:04:39;3.90;99.90
19168;DHT22;9716;53.114;18.040;2024-02-26T02:07:07;3.90;99.90
19168;DHT22;9716;53.114;18.040;2024-02-26T02:09:37;3.80;99.90
19168;DHT22;9716;53.114;18.040;2024-02-26T02:12:07;3.80;99.90
19168;DHT22;9716;53.114;18.040;2024-02-26T02:14:36;3.80;99.90
19168;DHT22;9716;53.114;18.040;2024-02-26T02:17:05;3.80;99.90
19168;DHT22;9716;53.114;18.040;2024-02-26T02:19:34;3.70;99.90
19168;DHT22;9716;53.114;18.040;2024-02-26T02:22:04;3.70;99.90
19168;DHT22;9716;53.114;18.040;2024-02-26T02:24:33;3.70;99.90
19168;DHT22;9716;53.114;18.040;2024-02-26T02:27:01;3.70;99.90
19168;DHT22;9716;53.114;18.040;2024-02-26T02:29:31;3.70;99.90
19168;DHT22;9716;53.114;18.040;2024-02-26T02:32:03;3.70;99.90
19168;DHT22;9716;53.114;18.040;2024-02-26T02:34:32;3.80;99.90
19168;DHT22;9716;53.114;18.040;2024-02-26T02:37:01;3.80;99.90
19168;DHT22;9716;53.114;18.040;2024-02-26T02:39:32;3.80;99.90
19168;DHT22;9716;53.114;18.040;2024-02-26T02:42:00;3.80;99.90
19168;DHT22;9716;53.114;18.040;2024-02-26T02:44:29;3.80;99.90
19168;DHT22;9716;53.114;18.040;2024-02-26T02:46:58;3.80;99.90
19168;DHT22;9716;53.114;18.040;2024-02-26T02:49:27;3.80;99.90
19168;DHT22;9716;53.114;18.040;2024-02-26T02:51:55;3.90;99.90
19168;DHT22;9716;53.114;18.040;2024-02-26T02:54:25;3.90;99.90
19168;DHT22;9716;53.114;18.040;2024-02-26T02:56:55;3.90;99.90
19168;DHT22;9716;53.114;18.040;2024-02-26T02:59:24;3.90;99.90
19168;DHT22;9716;53.114;18.040;2024-02-26T03:01:52;3.90;99.90
19168;DHT22;9716;53.114;18.040;2024-02-26T03:04:23;4.10;99.90
19168;DHT22;9716;53.114;18.040;2024-02-26T03:06:52;4.00;99.90
19168;DHT22;9716;53.114;18.040;2024-02-26T03:09:21;4.00;99.90
19168;DHT22;9716;53.114;18.040;2024-02-26T03:11:50;4.00;99.90
19168;DHT22;9716;53.114;18.040;2024-02-26T03:14:21;4.00;99.90
19168;DHT22;9716;53.114;18.040;2024-02-26T03:16:49;3.90;99.90
19168;DHT22;9716;53.114;18.040;2024-02-26T03:19:21;3.90;99.90
19168;DHT22;9716;53.114;18.040;2024-02-26T03:21:52;3.90;99.90
19168;DHT22;9716;53.114;18.040;2024-02-26T03:24:21;3.90;99.90
19168;DHT22;9716;53.114;18.040;2024-02-26T03:26:50;3.90;99.90
19168;DHT22;9716;53.114;18.040;2024-02-26T03:29:21;3.90;99.90
19168;DHT22;9716;53.114;18.040;2024-02-26T03:31:49;3.90;99.90
19168;DHT22;9716;53.114;18.040;2024-02-26T03:34:18;3.90;99.90
19168;DHT22;9716;53.114;18.040;2024-02-26T03:36:47;3.90;99.90
19168;DHT22;9716;53.114;18.040;2024-02-26T03:39:16;3.80;99.90
19168;DHT22;9716;53.114;18.040;2024-02-26T03:41:45;3.90;99.90
19168;DHT22;9716;53.114;18.040;2024-02-26T03:44:14;3.90;99.90
19168;DHT22;9716;53.114;18.040;2024-02-26T03:46:44;3.90;99.90
19168;DHT22;9716;53.114;18.040;2024-02-26T03:49:13;3.90;99.90
19168;DHT22;9716;53.114;18.040;2024-02-26T03:51:41;4.00;99.90
19168;DHT22;9716;53.114;18.040;2024-02-26T03:54:10;4.00;99.90
19168;DHT22;9716;53.114;18.040;2024-02-26T03:56:39;4.00;99.90
19168;DHT22;9716;53.114;18.040;2024-02-26T03:59:09;4.00;99.90
19168;DHT22;9716;53.114;18.040;2024-02-26T04:01:37;4.00;99.90
19168;DHT22;9716;53.114;18.040;2024-02-26T04:04:07;4.00;99.90
19168;DHT22;9716;53.114;18.040;2024-02-26T04:06:36;4.00;99.90
19168;DHT22;9716;53.114;18.040;2024-02-26T04:09:05;4.00;99.90
19168;DHT22;9716;53.114;18.040;2024-02-26T04:11:34;4.00;99.90
19168;DHT22;9716;53.114;18.040;2024-02-26T04:14:03;4.00;99.90
19168;DHT22;9716;53.114;18.040;2024-02-26T04:16:33;4.00;99.90
19168;DHT22;9716;53.114;18.040;2024-02-26T04:19:01;3.90;99.90
19168;DHT22;9716;53.114;18.040;2024-02-26T04:21:32;3.90;99.90
19168;DHT22;9716;53.114;18.040;2024-02-26T04:24:01;3.80;99.90
19168;DHT22;9716;53.114;18.040;2024-02-26T04:26:30;3.80;99.90
19168;DHT22;9716;53.114;18.040;2024-02-26T04:28:59;3.80;99.90
19168;DHT22;9716;53.114;18.040;2024-02-26T04:31:28;3.70;99.90
19168;DHT22;9716;53.114;18.040;2024-02-26T04:33:58;3.80;99.90
19168;DHT22;9716;53.114;18.040;2024-02-26T04:36:27;3.60;99.90
19168;DHT22;9716;53.114;18.040;2024-02-26T04:39:00;3.60;99.90
19168;DHT22;9716;53.114;18.040;2024-02-26T04:41:28;3.60;99.90
19168;DHT22;9716;53.114;18.040;2024-02-26T04:43:57;3.50;99.90
19168;DHT22;9716;53.114;18.040;2024-02-26T04:46:26;3.50;99.90
19168;DHT22;9716;53.114;18.040;2024-02-26T04:48:55;3.50;99.90
19168;DHT22;9716;53.114;18.040;2024-02-26T04:51:25;3.40;99.90
19168;DHT22;9716;53.114;18.040;2024-02-26T04:53:54;3.40;99.90
19168;DHT22;9716;53.114;18.040;2024-02-26T04:56:24;3.30;99.90
19168;DHT22;9716;53.114;18.040;2024-02-26T04:58:53;3.30;99.90
19168;DHT22;9716;53.114;18.040;2024-02-26T05:01:22;3.30;99.90
19168;DHT22;9716;53.114;18.040;2024-02-26T05:03:51;3.30;99.90
19168;DHT22;9716;53.114;18.040;2024-02-26T05:06:20;3.30;99.90
19168;DHT22;9716;53.114;18.040;2024-02-26T05:08:49;3.30;99.90
19168;DHT22;9716;53.114;18.040;2024-02-26T05:11:18;3.20;99.90
19168;DHT22;9716;53.114;18.040;2024-02-26T05:13:49;3.20;99.90
19168;DHT22;9716;53.114;18.040;2024-02-26T05:16:18;3.20;99.90
19168;DHT22;9716;53.114;18.040;2024-02-26T05:18:48;3.20;99.90
19168;DHT22;9716;53.114;18.040;2024-02-26T05:21:17;3.20;99.90
19168;DHT22;9716;53.114;18.040;2024-02-26T05:23:46;3.10;99.90
19168;DHT22;9716;53.114;18.040;2024-02-26T05:26:19;3.20;99.90
19168;DHT22;9716;53.114;18.040;2024-02-26T05:28:50;3.10;99.90
19168;DHT22;9716;53.114;18.040;2024-02-26T05:31:19;3.10;99.90
19168;DHT22;9716;53.114;18.040;2024-02-26T05:33:48;3.00;99.90
19168;DHT22;9716;53.114;18.040;2024-02-26T05:36:19;3.00;99.90
19168;DHT22;9716;53.114;18.040;2024-02-26T05:38:50;3.00;99.90
19168;DHT22;9716;53.114;18.040;2024-02-26T05:41:19;2.90;99.90
19168;DHT22;9716;53.114;18.040;2024-02-26T05:43:52;2.90;99.90
19168;DHT22;9716;53.114;18.040;2024-02-26T05:46:21;2.90;99.90
19168;DHT22;9716;53.114;18.040;2024-02-26T05:48:52;2.80;99.90
19168;DHT22;9716;53.114;18.040;2024-02-26T05:51:21;2.80;99.90
19168;DHT22;9716;53.114;18.040;2024-02-26T05:53:50;2.80;99.90
19168;DHT22;9716;53.114;18.040;2024-02-26T05:56:22;2.80;99.90
19168;DHT22;9716;53.114;18.040;2024-02-26T05:58:52;2.80;99.90
19168;DHT22;9716;53.114;18.040;2024-02-26T06:01:21;2.90;99.90
19168;DHT22;9716;53.114;18.040;2024-02-26T06:03:52;2.90;99.90
19168;DHT22;9716;53.114;18.040;2024-02-26T06:06:20;3.00;99.90
19168;DHT22;9716;53.114;18.040;2024-02-26T06:08:51;3.00;99.90
19168;DHT22;9716;53.114;18.040;2024-02-26T06:11:19;3.10;99.90
19168;DHT22;9716;53.114;18.040;2024-02-26T06:13:52;3.10;99.90
19168;DHT22;9716;53.114;18.040;2024-02-26T06:16:21;3.10;99.90
19168;DHT22;9716;53.114;18.040;2024-02-26T06:18:49;3.20;99.90
19168;DHT22;9716;53.114;18.040;2024-02-26T06:21:18;3.20;99.90
19168;DHT22;9716;53.114;18.040;2024-02-26T06:23:47;3.30;99.90
19168;DHT22;9716;53.114;18.040;2024-02-26T06:26:16;3.30;99.90
19168;DHT22;9716;53.114;18.040;2024-02-26T06:28:45;3.40;99.90
19168;DHT22;9716;53.114;18.040;2024-02-26T06:31:15;3.40;99.90
19168;DHT22;9716;53.114;18.040;2024-02-26T06:33:44;3.40;99.90
19168;DHT22;9716;53.114;18.040;2024-02-26T06:36:14;3.50;99.90
19168;DHT22;9716;53.114;18.040;2024-02-26T06:38:42;3.50;99.90
19168;DHT22;9716;53.114;18.040;2024-02-26T06:41:11;3.50;99.90
19168;DHT22;9716;53.114;18.040;2024-02-26T06:43:40;3.60;99.90
19168;DHT22;9716;53.114;18.040;2024-02-26T06:46:08;3.60;99.90
19168;DHT22;9716;53.114;18.040;2024-02-26T06:48:38;3.70;99.90
19168;DHT22;9716;53.114;18.040;2024-02-26T06:51:08;3.70;99.90
19168;DHT22;9716;53.114;18.040;2024-02-26T06:53:36;3.80;99.90
19168;DHT22;9716;53.114;18.040;2024-02-26T06:56:05;3.80;99.90
19168;DHT22;9716;53.114;18.040;2024-02-26T06:58:34;3.80;99.90
19168;DHT22;9716;53.114;18.040;2024-02-26T07:01:03;3.90;99.90
19168;DHT22;9716;53.114;18.040;2024-02-26T07:03:32;3.90;99.90
19168;DHT22;9716;53.114;18.040;2024-02-26T07:06:03;3.90;99.90
19168;DHT22;9716;53.114;18.040;2024-02-26T07:08:35;3.90;99.90
19168;DHT22;9716;53.114;18.040;2024-02-26T07:11:07;3.90;99.90
19168;DHT22;9716;53.114;18.040;2024-02-26T07:13:36;4.00;99.90
19168;DHT22;9716;53.114;18.040;2024-02-26T07:16:05;4.00;99.90
19168;DHT22;9716;53.114;18.040;2024-02-26T07:18:34;4.10;99.90
19168;DHT22;9716;53.114;18.040;2024-02-26T07:21:05;4.20;99.90
19168;DHT22;9716;53.114;18.040;2024-02-26T07:23:34;4.10;99.90
19168;DHT22;9716;53.114;18.040;2024-02-26T07:26:03;4.20;99.90
19168;DHT22;9716;53.114;18.040;2024-02-26T07:28:32;4.20;99.90
19168;DHT22;9716;53.114;18.040;2024-02-26T07:31:01;4.30;99.90
19168;DHT22;9716;53.114;18.040;2024-02-26T07:33:30;4.30;99.90
19168;DHT22;9716;53.114;18.040;2024-02-26T07:35:59;4.40;99.90
19168;DHT22;9716;53.114;18.040;2024-02-26T07:38:29;4.40;99.90
19168;DHT22;9716;53.114;18.040;2024-02-26T07:41:09;4.50;99.90
19168;DHT22;9716;53.114;18.040;2024-02-26T07:43:38;4.50;99.90
19168;DHT22;9716;53.114;18.040;2024-02-26T07:46:11;4.60;99.90
19168;DHT22;9716;53.114;18.040;2024-02-26T07:48:40;4.60;99.90
19168;DHT22;9716;53.114;18.040;2024-02-26T07:51:12;4.70;99.90
19168;DHT22;9716;53.114;18.040;2024-02-26T07:53:42;4.70;99.90
19168;DHT22;9716;53.114;18.040;2024-02-26T07:56:11;4.80;99.90
19168;DHT22;9716;53.114;18.040;2024-02-26T07:58:40;4.90;99.90
19168;DHT22;9716;53.114;18.040;2024-02-26T08:01:08;4.90;99.90
19168;DHT22;9716;53.114;18.040;2024-02-26T08:03:37;5.00;99.90
19168;DHT22;9716;53.114;18.040;2024-02-26T08:06:08;5.10;99.90
19168;DHT22;9716;53.114;18.040;2024-02-26T08:08:37;5.20;99.90
19168;DHT22;9716;53.114;18.040;2024-02-26T08:11:07;5.30;99.90
19168;DHT22;9716;53.114;18.040;2024-02-26T08:13:35;5.40;99.90
19168;DHT22;9716;53.114;18.040;2024-02-26T08:16:05;5.50;99.90
19168;DHT22;9716;53.114;18.040;2024-02-26T08:18:34;5.60;99.90
19168;DHT22;9716;53.114;18.040;2024-02-26T08:21:04;5.70;99.90
19168;DHT22;9716;53.114;18.040;2024-02-26T08:23:33;5.70;99.90
19168;DHT22;9716;53.114;18.040;2024-02-26T08:26:02;5.90;99.90
19168;DHT22;9716;53.114;18.040;2024-02-26T08:28:33;6.00;99.90
19168;DHT22;9716;53.114;18.040;2024-02-26T08:31:02;6.00;99.90
19168;DHT22;9716;53.114;18.040;2024-02-26T08:33:31;6.00;99.90
19168;DHT22;9716;53.114;18.040;2024-02-26T08:36:04;6.10;99.90
19168;DHT22;9716;53.114;18.040;2024-02-26T08:38:33;6.20;99.90
19168;DHT22;9716;53.114;18.040;2024-02-26T08:41:03;6.20;99.90
19168;DHT22;9716;53.114;18.040;2024-02-26T08:43:34;6.30;99.90
19168;DHT22;9716;53.114;18.040;2024-02-26T08:46:03;6.50;99.90
19168;DHT22;9716;53.114;18.040;2024-02-26T08:48:32;6.60;99.90
19168;DHT22;9716;53.114;18.040;2024-02-26T08:51:05;6.60;99.90
19168;DHT22;9716;53.114;18.040;2024-02-26T08:53:33;6.80;99.90
19168;DHT22;9716;53.114;18.040;2024-02-26T08:56:13;7.00;99.90
19168;DHT22;9716;53.114;18.040;2024-02-26T08:58:47;7.10;99.90
19168;DHT22;9716;53.114;18.040;2024-02-26T09:01:19;7.30;99.90
19168;DHT22;9716;53.114;18.040;2024-02-26T09:03:48;7.30;99.90
19168;DHT22;9716;53.114;18.040;2024-02-26T09:06:17;7.40;99.90
19168;DHT22;9716;53.114;18.040;2024-02-26T09:08:46;7.50;99.90
19168;DHT22;9716;53.114;18.040;2024-02-26T09:11:15;7.50;99.90
19168;DHT22;9716;53.114;18.040;2024-02-26T09:13:44;7.70;99.90
19168;DHT22;9716;53.114;18.040;2024-02-26T09:16:15;7.80;99.90
19168;DHT22;9716;53.114;18.040;2024-02-26T09:18:43;8.00;99.90
19168;DHT22;9716;53.114;18.040;2024-02-26T09:21:13;8.10;99.90
19168;DHT22;9716;53.114;18.040;2024-02-26T09:23:42;8.20;99.90
19168;DHT22;9716;53.114;18.040;2024-02-26T09:26:11;8.40;99.90
19168;DHT22;9716;53.114;18.040;2024-02-26T09:28:40;8.50;99.90
19168;DHT22;9716;53.114;18.040;2024-02-26T09:31:09;8.60;99.90
19168;DHT22;9716;53.114;18.040;2024-02-26T09:33:39;8.90;99.90
19168;DHT22;9716;53.114;18.040;2024-02-26T09:36:08;9.10;99.90
19168;DHT22;9716;53.114;18.040;2024-02-26T09:38:38;9.30;99.90
19168;DHT22;9716;53.114;18.040;2024-02-26T09:41:22;9.50;99.90
19168;DHT22;9716;53.114;18.040;2024-02-26T09:43:53;9.60;99.90
19168;DHT22;9716;53.114;18.040;2024-02-26T09:46:25;9.80;99.90
19168;DHT22;9716;53.114;18.040;2024-02-26T09:48:55;9.90;99.90
19168;DHT22;9716;53.114;18.040;2024-02-26T09:51:26;10.10;99.90
19168;DHT22;9716;53.114;18.040;2024-02-26T09:53:55;10.30;99.90
19168;DHT22;9716;53.114;18.040;2024-02-26T09:56:25;10.50;99.90
19168;DHT22;9716;53.114;18.040;2024-02-26T09:58:54;10.70;99.90
19168;DHT22;9716;53.114;18.040;2024-02-26T10:01:25;10.90;99.90
19168;DHT22;9716;53.114;18.040;2024-02-26T10:03:57;11.10;99.90
19168;DHT22;9716;53.114;18.040;2024-02-26T10:06:27;11.20;99.90
19168;DHT22;9716;53.114;18.040;2024-02-26T10:08:56;11.30;99.90
19168;DHT22;9716;53.114;18.040;2024-02-26T10:11:27;11.40;99.90
19168;DHT22;9716;53.114;18.040;2024-02-26T10:13:56;11.50;99.90
19168;DHT22;9716;53.114;18.040;2024-02-26T10:16:25;11.50;99.90
19168;DHT22;9716;53.114;18.040;2024-02-26T10:18:53;11.60;99.90
19168;DHT22;9716;53.114;18.040;2024-02-26T10:21:28;11.70;99.90
19168;DHT22;9716;53.114;18.040;2024-02-26T10:23:56;11.90;99.90
19168;DHT22;9716;53.114;18.040;2024-02-26T10:26:25;11.90;99.90
19168;DHT22;9716;53.114;18.040;2024-02-26T10:28:59;12.00;99.90
19168;DHT22;9716;53.114;18.040;2024-02-26T10:31:29;12.00;99.90
19168;DHT22;9716;53.114;18.040;2024-02-26T10:33:58;12.20;99.90
19168;DHT22;9716;53.114;18.040;2024-02-26T10:36:35;12.20;99.90
19168;DHT22;9716;53.114;18.040;2024-02-26T10:39:18;12.20;99.90
19168;DHT22;9716;53.114;18.040;2024-02-26T10:41:47;12.30;99.90
19168;DHT22;9716;53.114;18.040;2024-02-26T10:44:15;12.30;99.90
19168;DHT22;9716;53.114;18.040;2024-02-26T10:46:47;12.30;99.90
19168;DHT22;9716;53.114;18.040;2024-02-26T10:49:17;12.40;99.90
19168;DHT22;9716;53.114;18.040;2024-02-26T10:51:54;12.30;99.90
19168;DHT22;9716;53.114;18.040;2024-02-26T10:54:26;12.40;99.90
19168;DHT22;9716;53.114;18.040;2024-02-26T10:56:59;12.40;99.90
19168;DHT22;9716;53.114;18.040;2024-02-26T10:59:28;12.50;99.90
19168;DHT22;9716;53.114;18.040;2024-02-26T11:01:58;12.50;99.90
19168;DHT22;9716;53.114;18.040;2024-02-26T11:04:27;12.60;99.90
19168;DHT22;9716;53.114;18.040;2024-02-26T11:06:59;12.60;99.90
19168;DHT22;9716;53.114;18.040;2024-02-26T11:09:28;12.60;99.90
19168;DHT22;9716;53.114;18.040;2024-02-26T11:11:58;12.70;99.90
19168;DHT22;9716;53.114;18.040;2024-02-26T11:14:29;12.80;99.90
19168;DHT22;9716;53.114;18.040;2024-02-26T11:16:58;12.80;99.90
19168;DHT22;9716;53.114;18.040;2024-02-26T11:19:28;12.70;99.90
19168;DHT22;9716;53.114;18.040;2024-02-26T11:22:04;12.70;99.90
19168;DHT22;9716;53.114;18.040;2024-02-26T11:24:47;12.80;99.90
19168;DHT22;9716;53.114;18.040;2024-02-26T11:27:18;12.80;99.90
19168;DHT22;9716;53.114;18.040;2024-02-26T11:29:52;12.90;99.90
19168;DHT22;9716;53.114;18.040;2024-02-26T11:32:22;12.90;99.90
19168;DHT22;9716;53.114;18.040;2024-02-26T11:34:51;12.90;99.90
19168;DHT22;9716;53.114;18.040;2024-02-26T11:37:22;12.90;99.90
19168;DHT22;9716;53.114;18.040;2024-02-26T11:39:52;12.90;99.90
19168;DHT22;9716;53.114;18.040;2024-02-26T11:42:24;12.90;99.90
19168;DHT22;9716;53.114;18.040;2024-02-26T11:44:53;13.00;99.90
19168;DHT22;9716;53.114;18.040;2024-02-26T11:47:23;12.90;99.90
19168;DHT22;9716;53.114;18.040;2024-02-26T11:49:52;12.90;99.90
19168;DHT22;9716;53.114;18.040;2024-02-26T11:52:22;12.90;99.90
19168;DHT22;9716;53.114;18.040;2024-02-26T11:54:52;13.00;99.90
19168;DHT22;9716;53.114;18.040;2024-02-26T11:57:25;13.00;99.90
19168;DHT22;9716;53.114;18.040;2024-02-26T11:59:56;13.00;99.90
19168;DHT22;9716;53.114;18.040;2024-02-26T12:02:43;13.00;99.90
19168;DHT22;9716;53.114;18.040;2024-02-26T12:05:14;13.00;99.90
19168;DHT22;9716;53.114;18.040;2024-02-26T12:07:46;13.00;99.90
19168;DHT22;9716;53.114;18.040;2024-02-26T12:10:20;13.00;99.90
19168;DHT22;9716;53.114;18.040;2024-02-26T12:12:49;13.00;99.90
19168;DHT22;9716;53.114;18.040;2024-02-26T12:15:19;13.10;99.90
19168;DHT22;9716;53.114;18.040;2024-02-26T12:17:49;13.10;99.90
19168;DHT22;9716;53.114;18.040;2024-02-26T12:20:18;13.20;99.90
19168;DHT22;9716;53.114;18.040;2024-02-26T12:22:50;13.30;99.90
19168;DHT22;9716;53.114;18.040;2024-02-26T12:25:22;13.40;99.90
19168;DHT22;9716;53.114;18.040;2024-02-26T12:27:52;13.40;99.90
19168;DHT22;9716;53.114;18.040;2024-02-26T12:30:21;13.40;99.90
19168;DHT22;9716;53.114;18.040;2024-02-26T12:32:51;13.40;99.90
19168;DHT22;9716;53.114;18.040;2024-02-26T12:35:24;13.50;99.90
19168;DHT22;9716;53.114;18.040;2024-02-26T12:37:55;13.50;99.90
19168;DHT22;9716;53.114;18.040;2024-02-26T12:40:24;13.50;99.90
19168;DHT22;9716;53.114;18.040;2024-02-26T12:42:54;13.50;99.90
19168;DHT22;9716;53.114;18.040;2024-02-26T12:45:23;13.50;99.90
19168;DHT22;9716;53.114;18.040;2024-02-26T12:47:53;13.60;99.90
19168;DHT22;9716;53.114;18.040;2024-02-26T12:50:23;13.60;99.90
19168;DHT22;9716;53.114;18.040;2024-02-26T12:52:54;13.60;99.90
19168;DHT22;9716;53.114;18.040;2024-02-26T12:55:23;13.60;99.90
19168;DHT22;9716;53.114;18.040;2024-02-26T12:57:52;13.60;99.90
19168;DHT22;9716;53.114;18.040;2024-02-26T13:00:23;13.60;99.90
19168;DHT22;9716;53.114;18.040;2024-02-26T13:02:54;13.60;99.90
19168;DHT22;9716;53.114;18.040;2024-02-26T13:05:24;13.70;99.90
19168;DHT22;9716;53.114;18.040;2024-02-26T13:07:55;13.70;99.90
19168;DHT22;9716;53.114;18.040;2024-02-26T13:10:24;13.80;99.90
19168;DHT22;9716;53.114;18.040;2024-02-26T13:12:53;13.80;99.90
19168;DHT22;9716;53.114;18.040;2024-02-26T13:15:22;13.80;99.90
19168;DHT22;9716;53.114;18.040;2024-02-26T13:17:51;13.80;99.90
19168;DHT22;9716;53.114;18.040;2024-02-26T13:20:27;13.80;99.90
19168;DHT22;9716;53.114;18.040;2024-02-26T13:23:02;13.80;99.90
19168;DHT22;9716;53.114;18.040;2024-02-26T13:25:32;13.80;99.90
19168;DHT22;9716;53.114;18.040;2024-02-26T13:28:07;13.80;99.90
19168;DHT22;9716;53.114;18.040;2024-02-26T13:30:36;13.80;99.90
19168;DHT22;9716;53.114;18.040;2024-02-26T13:33:09;13.70;99.90
19168;DHT22;9716;53.114;18.040;2024-02-26T13:35:38;13.70;99.90
19168;DHT22;9716;53.114;18.040;2024-02-26T13:38:10;13.60;99.90
19168;DHT22;9716;53.114;18.040;2024-02-26T13:40:40;13.60;99.90
19168;DHT22;9716;53.114;18.040;2024-02-26T13:43:08;13.60;99.90
19168;DHT22;9716;53.114;18.040;2024-02-26T13:45:38;13.60;99.90
19168;DHT22;9716;53.114;18.040;2024-02-26T13:48:08;13.60;99.90
19168;DHT22;9716;53.114;18.040;2024-02-26T13:50:39;13.50;99.90
19168;DHT22;9716;53.114;18.040;2024-02-26T13:53:09;13.50;99.90
19168;DHT22;9716;53.114;18.040;2024-02-26T13:55:36;13.40;99.90
19168;DHT22;9716;53.114;18.040;2024-02-26T13:58:05;13.40;99.90
19168;DHT22;9716;53.114;18.040;2024-02-26T14:00:34;13.30;99.90
19168;DHT22;9716;53.114;18.040;2024-02-26T14:03:03;13.30;99.90
19168;DHT22;9716;53.114;18.040;2024-02-26T14:05:32;13.20;99.90
19168;DHT22;9716;53.114;18.040;2024-02-26T14:08:01;13.20;99.90
19168;DHT22;9716;53.114;18.040;2024-02-26T14:10:32;13.10;99.90
19168;DHT22;9716;53.114;18.040;2024-02-26T14:13:00;13.10;99.90
19168;DHT22;9716;53.114;18.040;2024-02-26T14:15:29;13.00;99.90
19168;DHT22;9716;53.114;18.040;2024-02-26T14:18:00;12.90;99.90
19168;DHT22;9716;53.114;18.040;2024-02-26T14:20:34;12.90;99.90
19168;DHT22;9716;53.114;18.040;2024-02-26T14:23:03;12.80;99.90
19168;DHT22;9716;53.114;18.040;2024-02-26T14:25:33;12.80;99.90
19168;DHT22;9716;53.114;18.040;2024-02-26T14:28:01;12.70;99.90
19168;DHT22;9716;53.114;18.040;2024-02-26T14:30:30;12.70;99.90
19168;DHT22;9716;53.114;18.040;2024-02-26T14:33:00;12.70;99.90
19168;DHT22;9716;53.114;18.040;2024-02-26T14:35:30;12.60;99.90
19168;DHT22;9716;53.114;18.040;2024-02-26T14:37:59;12.60;99.90
19168;DHT22;9716;53.114;18.040;2024-02-26T14:40:29;12.60;99.90
19168;DHT22;9716;53.114;18.040;2024-02-26T14:43:02;12.50;99.90
19168;DHT22;9716;53.114;18.040;2024-02-26T14:45:32;12.50;99.90
19168;DHT22;9716;53.114;18.040;2024-02-26T14:48:01;12.50;99.90
19168;DHT22;9716;53.114;18.040;2024-02-26T14:50:30;12.50;99.90
19168;DHT22;9716;53.114;18.040;2024-02-26T14:52:59;12.40;99.90
19168;DHT22;9716;53.114;18.040;2024-02-26T14:55:29;12.40;99.90
19168;DHT22;9716;53.114;18.040;2024-02-26T14:57:58;12.40;99.90
19168;DHT22;9716;53.114;18.040;2024-02-26T15:00:28;12.40;99.90
19168;DHT22;9716;53.114;18.040;2024-02-26T15:03:01;12.30;99.90
19168;DHT22;9716;53.114;18.040;2024-02-26T15:05:31;12.30;99.90
19168;DHT22;9716;53.114;18.040;2024-02-26T15:08:00;12.20;99.90
19168;DHT22;9716;53.114;18.040;2024-02-26T15:10:29;12.20;99.90
19168;DHT22;9716;53.114;18.040;2024-02-26T15:12:58;12.20;99.90
19168;DHT22;9716;53.114;18.040;2024-02-26T15:15:28;12.10;99.90
19168;DHT22;9716;53.114;18.040;2024-02-26T15:17:57;12.10;99.90
19168;DHT22;9716;53.114;18.040;2024-02-26T15:20:25;12.10;99.90
19168;DHT22;9716;53.114;18.040;2024-02-26T15:22:54;12.00;99.90
19168;DHT22;9716;53.114;18.040;2024-02-26T15:25:23;12.00;99.90
19168;DHT22;9716;53.114;18.040;2024-02-26T15:27:52;11.90;99.90
19168;DHT22;9716;53.114;18.040;2024-02-26T15:30:20;11.90;99.90
19168;DHT22;9716;53.114;18.040;2024-02-26T15:32:50;11.80;99.90
19168;DHT22;9716;53.114;18.040;2024-02-26T15:35:19;11.80;99.90
19168;DHT22;9716;53.114;18.040;2024-02-26T15:37:48;11.70;99.90
19168;DHT22;9716;53.114;18.040;2024-02-26T15:40:18;11.60;99.90
19168;DHT22;9716;53.114;18.040;2024-02-26T15:42:46;11.50;99.90
19168;DHT22;9716;53.114;18.040;2024-02-26T15:45:15;11.50;99.90
19168;DHT22;9716;53.114;18.040;2024-02-26T15:47:44;11.40;99.90
19168;DHT22;9716;53.114;18.040;2024-02-26T15:50:16;11.30;99.90
19168;DHT22;9716;53.114;18.040;2024-02-26T15:52:45;11.20;99.90
19168;DHT22;9716;53.114;18.040;2024-02-26T15:55:14;11.10;99.90